Time;durP1;ratioP1;P1;durP2;ratioP2;P2;SDS_P1;SDS_P2;PMS_P1;PMS_P2;Temp;Humidity;BMP_temperature;BMP_pressure;BME280_temperature;BME280_humidity;BME280_pressure;Samples;Min_cycle;Max_cycle;Signal;HPM_P1;HPM_P2
2021/06/23 00:00:52;;;;;;;6.10;3.10;;;25.20;65.20;;;;;;5095135;28;20426;-74
2021/06/23 00:03:18;;;;;;;10.98;3.00;;;25.30;65.40;;;;;;5094508;28;20038;-76
2021/06/23 00:05:43;;;;;;;7.05;2.92;;;25.30;65.50;;;;;;5095089;28;20028;-75
2021/06/23 00:08:09;;;;;;;5.35;3.00;;;25.20;65.50;;;;;;5081907;28;20081;-76
2021/06/23 00:10:35;;;;;;;8.60;2.80;;;25.30;65.50;;;;;;5073676;28;20108;-75
2021/06/23 00:13:05;;;;;;;5.78;2.80;;;25.30;65.40;;;;;;5074736;28;20023;-75
2021/06/23 00:15:31;;;;;;;13.63;3.42;;;25.30;65.20;;;;;;5104431;28;20038;-75
2021/06/23 00:17:57;;;;;;;11.70;3.40;;;25.30;64.80;;;;;;5094779;28;20024;-76
2021/06/23 00:20:24;;;;;;;12.57;3.15;;;25.40;64.80;;;;;;5094879;28;20030;-76
2021/06/23 00:22:51;;;;;;;10.57;3.03;;;25.40;64.80;;;;;;5094722;28;20028;-75
2021/06/23 00:25:17;;;;;;;8.40;2.92;;;25.40;64.80;;;;;;5094653;28;20516;-77
2021/06/23 00:27:43;;;;;;;8.30;3.38;;;25.40;64.70;;;;;;5094432;28;20090;-74
2021/06/23 00:30:09;;;;;;;7.38;2.65;;;25.40;64.80;;;;;;5094330;28;20050;-76
2021/06/23 00:32:38;;;;;;;6.80;3.22;;;25.40;64.90;;;;;;5085488;28;20056;-76
2021/06/23 00:35:05;;;;;;;7.97;4.05;;;25.40;65.00;;;;;;5094409;28;20024;-76
2021/06/23 00:37:30;;;;;;;8.20;3.42;;;25.40;65.80;;;;;;5094318;28;20028;-76
2021/06/23 00:39:56;;;;;;;9.35;3.13;;;25.40;65.40;;;;;;5094050;28;20466;-75
2021/06/23 00:52:54;;;;;;;10.48;3.20;;;25.30;65.60;;;;;;5111436;27;20194;-76
2021/06/23 00:55:25;;;;;;;7.63;2.95;;;25.20;65.10;;;;;;5111119;28;20081;-76
2021/06/23 00:57:54;;;;;;;7.03;3.15;;;25.10;65.20;;;;;;5111053;28;20365;-76
2021/06/23 01:00:28;;;;;;;8.52;2.78;;;25.10;65.30;;;;;;5111191;28;20016;-77
2021/06/23 01:02:54;;;;;;;9.73;2.78;;;25.20;65.30;;;;;;5091039;28;20039;-75
2021/06/23 01:05:20;;;;;;;8.38;3.42;;;25.10;65.20;;;;;;5089441;28;20359;-76
2021/06/23 01:07:46;;;;;;;11.13;3.22;;;25.20;65.20;;;;;;5090697;28;20036;-76
2021/06/23 01:10:13;;;;;;;8.68;2.75;;;25.10;65.10;;;;;;5091362;28;20028;-76
2021/06/23 01:13:07;;;;;;;9.23;3.05;;;25.10;65.00;;;;;;5090421;28;20145;-75
2021/06/23 01:15:34;;;;;;;10.63;3.70;;;25.20;65.30;;;;;;5090405;28;20462;-76
2021/06/23 01:18:00;;;;;;;6.20;3.08;;;25.20;65.40;;;;;;5090485;28;20040;-75
2021/06/23 01:20:26;;;;;;;9.60;3.70;;;25.20;65.40;;;;;;5089979;28;20482;-76
2021/06/23 01:22:52;;;;;;;10.75;3.88;;;25.10;65.30;;;;;;5090135;28;20039;-76
2021/06/23 01:25:18;;;;;;;9.30;3.67;;;25.10;65.00;;;;;;5089051;28;20036;-76
2021/06/23 01:27:46;;;;;;;7.00;3.42;;;25.10;64.80;;;;;;5089820;28;20032;-76
2021/06/23 01:30:14;;;;;;;13.00;3.17;;;25.10;64.60;;;;;;5090320;28;20024;-75
2021/06/23 01:32:40;;;;;;;7.72;3.20;;;25.10;64.30;;;;;;5090166;28;20415;-76
2021/06/23 01:35:06;;;;;;;7.85;3.65;;;25.10;63.80;;;;;;5090330;28;20028;-76
2021/06/23 01:37:33;;;;;;;12.38;3.53;;;25.10;63.50;;;;;;5090345;28;20115;-76
2021/06/23 01:40:00;;;;;;;4.90;3.17;;;25.10;63.30;;;;;;5089856;28;20029;-76
2021/06/23 01:42:26;;;;;;;6.60;3.30;;;25.10;63.30;;;;;;5089943;28;20055;-76
2021/06/23 01:44:52;;;;;;;10.55;3.45;;;25.10;63.30;;;;;;5089718;28;20488;-75
2021/06/23 01:47:18;;;;;;;5.72;3.40;;;25.10;63.40;;;;;;5090115;28;20028;-76
2021/06/23 01:49:45;;;;;;;7.00;3.10;;;25.10;63.80;;;;;;5089770;28;20032;-76
2021/06/23 01:52:11;;;;;;;8.02;3.65;;;25.10;64.10;;;;;;5085937;28;20052;-76
2021/06/23 01:54:41;;;;;;;9.70;3.28;;;25.10;64.30;;;;;;5076139;28;20028;-76
2021/06/23 01:57:11;;;;;;;11.52;3.30;;;25.10;64.50;;;;;;5076194;28;20028;-76
2021/06/23 01:59:38;;;;;;;7.47;3.50;;;25.10;64.60;;;;;;5074747;28;20025;-76
2021/06/23 02:02:26;;;;;;;9.65;4.60;;;25.00;64.70;;;;;;5076068;28;20474;-75
2021/06/23 02:05:27;;;;;;;8.25;3.30;;;25.00;64.90;;;;;;5076155;28;20037;-76
2021/06/23 02:08:23;;;;;;;8.38;3.38;;;25.00;65.00;;;;;;5056889;28;20041;-76
2021/06/23 02:11:18;;;;;;;9.32;3.25;;;25.00;64.90;;;;;;5074697;28;20094;-76
2021/06/23 02:14:10;;;;;;;9.50;3.10;;;25.00;64.80;;;;;;5076280;28;20038;-76
2021/06/23 02:16:38;;;;;;;10.55;3.38;;;25.00;64.80;;;;;;5075828;28;20090;-76
2021/06/23 02:19:06;;;;;;;8.48;3.10;;;25.00;64.90;;;;;;5075838;28;20043;-75
2021/06/23 02:21:36;;;;;;;6.10;3.15;;;25.00;65.50;;;;;;5075687;28;20157;-76
2021/06/23 02:24:02;;;;;;;6.50;2.90;;;25.00;65.00;;;;;;5074156;28;20043;-76
2021/06/23 02:26:28;;;;;;;7.57;2.90;;;25.00;65.00;;;;;;5075321;28;20047;-76
2021/06/23 02:28:54;;;;;;;9.90;3.38;;;25.00;64.90;;;;;;5075776;28;20032;-76
2021/06/23 02:31:20;;;;;;;11.07;3.35;;;25.00;64.80;;;;;;5075362;28;20494;-76
2021/06/23 02:33:46;;;;;;;10.43;3.85;;;25.00;64.90;;;;;;5075169;28;20056;-76
2021/06/23 02:36:12;;;;;;;5.25;3.03;;;25.00;64.70;;;;;;5075668;28;20107;-76
2021/06/23 02:38:39;;;;;;;5.97;3.25;;;25.00;64.50;;;;;;5075398;28;20029;-76
2021/06/23 02:41:05;;;;;;;10.88;3.50;;;25.10;64.60;;;;;;5074093;28;20119;-76
2021/06/23 02:43:31;;;;;;;9.82;3.92;;;25.10;64.50;;;;;;5076050;28;20051;-76
2021/06/23 02:45:57;;;;;;;11.63;3.72;;;25.20;64.40;;;;;;5075281;28;20451;-75
2021/06/23 02:48:26;;;;;;;10.85;3.40;;;25.20;64.30;;;;;;5075335;28;20052;-75
2021/06/23 02:51:21;;;;;;;9.68;3.58;;;25.20;64.00;;;;;;5075012;28;20033;-76
2021/06/23 02:53:49;;;;;;;7.28;3.38;;;25.20;63.90;;;;;;5072692;28;20119;-76
2021/06/23 02:56:16;;;;;;;7.85;3.08;;;25.20;63.90;;;;;;5073806;28;20036;-76
2021/06/23 02:58:43;;;;;;;8.52;3.30;;;25.20;63.80;;;;;;5074800;28;20024;-76
2021/06/23 03:01:11;;;;;;;10.98;3.17;;;25.20;63.60;;;;;;5074929;28;20024;-76
2021/06/23 03:03:38;;;;;;;6.63;3.25;;;25.20;63.50;;;;;;5074257;28;20375;-75
2021/06/23 03:06:04;;;;;;;4.82;3.20;;;25.30;63.60;;;;;;5074538;28;20016;-76
2021/06/23 03:08:29;;;;;;;9.88;3.70;;;25.30;63.50;;;;;;5074529;28;20035;-76
2021/06/23 03:10:56;;;;;;;7.20;3.20;;;25.30;63.50;;;;;;5075012;28;20037;-76
2021/06/23 03:13:22;;;;;;;6.93;3.47;;;25.40;63.50;;;;;;5074736;28;20024;-75
2021/06/23 03:15:47;;;;;;;7.25;3.10;;;25.40;63.60;;;;;;5074593;28;20524;-76
2021/06/23 03:18:13;;;;;;;10.77;3.35;;;25.40;63.60;;;;;;5074735;28;20151;-76
2021/06/23 03:20:39;;;;;;;8.23;3.30;;;25.40;63.50;;;;;;5074098;28;20078;-75
2021/06/23 03:23:05;;;;;;;8.88;3.20;;;25.50;63.60;;;;;;5074603;28;20028;-75
2021/06/23 03:25:31;;;;;;;11.65;3.20;;;25.50;63.60;;;;;;5074395;28;20041;-76
2021/06/23 03:27:59;;;;;;;8.07;2.97;;;25.60;63.60;;;;;;5074347;28;20024;-76
2021/06/23 03:30:26;;;;;;;8.45;3.05;;;25.60;63.60;;;;;;5074488;28;20031;-76
2021/06/23 03:32:52;;;;;;;10.02;3.58;;;25.60;63.60;;;;;;5074411;28;20027;-76
2021/06/23 03:35:20;;;;;;;8.32;3.60;;;25.70;63.70;;;;;;5074910;28;20466;-75
2021/06/23 03:37:47;;;;;;;9.00;3.10;;;25.80;63.40;;;;;;5074308;28;20099;-76
2021/06/23 03:40:13;;;;;;;8.43;3.65;;;25.80;63.30;;;;;;5073931;28;20111;-76
2021/06/23 03:42:39;;;;;;;8.60;3.35;;;25.90;63.10;;;;;;5073911;28;20405;-76
2021/06/23 03:45:06;;;;;;;4.50;3.15;;;25.90;63.00;;;;;;5074173;28;20032;-76
2021/06/23 03:47:32;;;;;;;9.52;3.20;;;26.00;62.80;;;;;;5073709;28;20513;-76
2021/06/23 03:49:57;;;;;;;5.53;3.60;;;26.10;62.70;;;;;;5073750;28;20052;-76
2021/06/23 03:52:23;;;;;;;5.72;3.25;;;26.10;62.50;;;;;;5074580;28;20098;-75
2021/06/23 03:54:49;;;;;;;10.95;3.75;;;26.20;62.50;;;;;;5074185;28;20063;-76
2021/06/23 03:57:15;;;;;;;8.27;3.47;;;26.20;62.60;;;;;;5073917;28;20427;-75
2021/06/23 03:59:41;;;;;;;9.48;3.83;;;26.30;62.70;;;;;;5073774;28;20043;-76
2021/06/23 04:02:06;;;;;;;5.32;3.47;;;26.30;62.60;;;;;;5072621;28;20039;-75
2021/06/23 04:04:32;;;;;;;8.00;3.40;;;26.30;62.60;;;;;;5072410;28;20037;-76
2021/06/23 04:06:58;;;;;;;10.00;3.60;;;26.30;62.60;;;;;;5073741;28;20028;-76
2021/06/23 04:09:24;;;;;;;7.57;3.60;;;26.40;62.70;;;;;;5074175;28;20086;-75
2021/06/23 04:11:49;;;;;;;6.93;3.92;;;26.50;62.60;;;;;;5073737;28;20467;-75
2021/06/23 04:14:16;;;;;;;6.13;3.90;;;26.60;62.50;;;;;;5073807;28;20060;-75
2021/06/23 04:16:41;;;;;;;4.63;3.42;;;26.60;62.40;;;;;;5073301;28;20547;-75
2021/06/23 04:19:08;;;;;;;13.70;4.18;;;26.70;62.50;;;;;;5073565;28;20112;-75
2021/06/23 04:21:34;;;;;;;10.15;4.47;;;26.60;62.70;;;;;;5073423;28;20420;-74
2021/06/23 04:24:00;;;;;;;9.57;3.90;;;26.70;62.80;;;;;;5073491;28;20074;-76
2021/06/23 04:26:25;;;;;;;4.13;3.50;;;26.70;62.80;;;;;;5073035;28;20035;-76
2021/06/23 04:28:52;;;;;;;11.82;4.07;;;26.70;62.80;;;;;;5073351;28;20017;-76
2021/06/23 04:31:18;;;;;;;5.97;3.80;;;26.80;62.70;;;;;;5072294;28;20496;-75
2021/06/23 04:33:44;;;;;;;10.52;3.65;;;26.80;62.60;;;;;;5073609;28;20063;-76
2021/06/23 04:36:09;;;;;;;10.98;3.58;;;26.80;62.60;;;;;;5073312;28;20029;-76
2021/06/23 04:38:36;;;;;;;7.80;3.65;;;26.80;62.60;;;;;;5076398;28;20025;-76
2021/06/23 04:41:01;;;;;;;10.35;3.80;;;26.90;62.70;;;;;;5093412;28;20035;-76
2021/06/23 04:43:27;;;;;;;5.35;3.65;;;26.80;62.50;;;;;;5092888;28;20416;-76
2021/06/23 04:45:53;;;;;;;5.28;3.35;;;26.80;62.50;;;;;;5093239;28;20031;-75
2021/06/23 04:48:18;;;;;;;7.35;3.88;;;26.80;62.40;;;;;;5093191;28;20024;-76
2021/06/23 04:50:44;;;;;;;12.00;4.15;;;26.80;62.40;;;;;;5092948;28;20070;-76
2021/06/23 04:53:10;;;;;;;10.43;3.85;;;26.70;62.50;;;;;;5093241;28;20024;-76
2021/06/23 04:55:36;;;;;;;13.15;3.67;;;26.70;62.50;;;;;;5093156;28;20373;-76
2021/06/23 04:58:02;;;;;;;8.95;3.90;;;26.70;62.60;;;;;;5093554;28;20355;-76
2021/06/23 05:00:27;;;;;;;8.02;3.97;;;26.70;62.60;;;;;;5093380;28;20031;-76
2021/06/23 05:02:53;;;;;;;7.40;4.20;;;26.70;62.50;;;;;;5093476;28;20164;-76
2021/06/23 05:05:19;;;;;;;9.38;3.83;;;26.80;62.60;;;;;;5093285;28;20028;-76
2021/06/23 05:07:44;;;;;;;6.72;4.00;;;26.80;62.50;;;;;;5092730;28;20028;-76
2021/06/23 05:10:10;;;;;;;9.68;4.38;;;26.80;62.40;;;;;;5092955;28;20024;-75
2021/06/23 05:12:36;;;;;;;12.63;3.95;;;26.90;62.20;;;;;;5092914;28;20066;-76
2021/06/23 05:15:02;;;;;;;10.48;4.45;;;26.90;62.10;;;;;;5093220;28;20097;-76
2021/06/23 05:17:28;;;;;;;9.75;4.10;;;27.10;62.30;;;;;;5092045;28;20024;-75
2021/06/23 05:19:55;;;;;;;9.05;4.20;;;27.20;62.10;;;;;;5093066;28;20024;-75
2021/06/23 05:22:21;;;;;;;12.82;4.05;;;27.40;61.90;;;;;;5093256;28;20381;-77
2021/06/23 05:24:47;;;;;;;12.93;4.20;;;27.60;61.60;;;;;;5093308;28;20047;-76
2021/06/23 05:27:12;;;;;;;18.40;4.75;;;27.90;61.10;;;;;;5093321;28;20413;-76
2021/06/23 05:29:38;;;;;;;11.75;4.65;;;28.00;60.90;;;;;;5096675;28;20035;-77
2021/06/23 05:32:05;;;;;;;10.02;4.30;;;28.10;61.30;;;;;;5096650;28;20040;-76
2021/06/23 05:34:31;;;;;;;5.65;4.35;;;28.20;60.50;;;;;;5096786;28;20085;-76
2021/06/23 05:36:57;;;;;;;7.47;4.72;;;28.30;60.50;;;;;;5096629;28;20028;-75
2021/06/23 05:39:24;;;;;;;6.63;4.22;;;28.30;60.30;;;;;;5096558;28;20021;-74
2021/06/23 05:41:50;;;;;;;8.48;4.63;;;28.40;60.20;;;;;;5096458;28;20028;-75
2021/06/23 05:44:15;;;;;;;8.80;4.40;;;28.40;60.30;;;;;;5096546;28;20032;-76
2021/06/23 05:46:41;;;;;;;11.30;5.15;;;28.50;60.20;;;;;;5096416;28;20477;-76
2021/06/23 05:49:07;;;;;;;18.08;4.45;;;28.60;60.10;;;;;;5096670;28;20020;-76
2021/06/23 05:51:33;;;;;;;9.07;4.82;;;28.60;60.10;;;;;;5094857;28;20035;-76
2021/06/23 05:53:58;;;;;;;11.52;4.85;;;28.70;60.20;;;;;;5096447;28;20045;-76
2021/06/23 05:56:24;;;;;;;6.80;4.60;;;28.70;60.20;;;;;;5096541;28;20028;-76
2021/06/23 05:58:50;;;;;;;9.15;4.43;;;28.80;60.30;;;;;;5096185;28;20025;-75
2021/06/23 06:01:16;;;;;;;8.38;5.15;;;28.90;60.40;;;;;;5095257;28;20115;-76
2021/06/23 06:03:41;;;;;;;13.70;5.25;;;28.90;60.40;;;;;;5096460;28;20097;-75
2021/06/23 06:06:07;;;;;;;13.88;4.72;;;28.80;60.40;;;;;;5094939;28;20105;-76
2021/06/23 06:08:33;;;;;;;16.63;5.03;;;28.90;60.40;;;;;;5075669;28;20471;-75
2021/06/23 06:10:59;;;;;;;9.60;4.40;;;28.90;60.50;;;;;;5075991;28;20040;-76
2021/06/23 06:13:25;;;;;;;12.43;4.35;;;29.00;60.40;;;;;;5076202;28;20035;-76
2021/06/23 06:15:50;;;;;;;8.45;4.13;;;29.00;59.50;;;;;;5075947;28;20024;-76
2021/06/23 06:18:16;;;;;;;10.75;4.60;;;29.00;59.00;;;;;;5075887;28;20056;-75
2021/06/23 06:20:42;;;;;;;7.18;4.68;;;29.00;58.90;;;;;;5075523;28;20035;-75
2021/06/23 06:23:08;;;;;;;8.15;4.07;;;28.90;58.90;;;;;;5075586;28;20064;-75
2021/06/23 06:25:34;;;;;;;13.65;4.20;;;28.90;58.80;;;;;;5075747;28;20505;-75
2021/06/23 06:28:00;;;;;;;13.52;4.75;;;28.90;58.70;;;;;;5091846;28;20023;-76
2021/06/23 06:30:26;;;;;;;9.05;4.80;;;28.90;58.80;;;;;;5096468;28;20035;-76
2021/06/23 06:32:53;;;;;;;16.33;4.63;;;29.00;58.90;;;;;;5087267;28;20032;-76
2021/06/23 06:35:20;;;;;;;12.20;4.22;;;29.20;58.60;;;;;;5095670;28;20031;-74
2021/06/23 06:37:46;;;;;;;23.35;4.53;;;29.40;58.70;;;;;;5096269;28;20024;-76
2021/06/23 06:40:13;;;;;;;8.73;4.88;;;29.70;58.60;;;;;;5095847;28;20019;-76
2021/06/23 06:42:39;;;;;;;10.45;4.63;;;29.90;58.10;;;;;;5095964;28;20032;-75
2021/06/23 06:45:06;;;;;;;9.43;4.65;;;30.10;58.30;;;;;;5096211;28;20035;-77
2021/06/23 06:47:32;;;;;;;9.50;4.10;;;30.20;57.50;;;;;;5096137;28;20032;-76
2021/06/23 06:49:58;;;;;;;11.05;4.88;;;30.30;57.50;;;;;;5095471;28;20477;-76
2021/06/23 06:52:23;;;;;;;12.77;4.63;;;30.40;57.10;;;;;;5101767;28;20485;-75
2021/06/23 06:54:49;;;;;;;7.82;5.22;;;30.40;56.70;;;;;;5109972;28;20032;-76
2021/06/23 06:57:15;;;;;;;11.80;4.25;;;30.30;56.70;;;;;;5095958;28;20024;-76
2021/06/23 06:59:41;;;;;;;16.02;4.70;;;30.30;57.00;;;;;;5095885;28;20031;-75
2021/06/23 07:02:07;;;;;;;10.82;4.90;;;30.30;56.90;;;;;;5095327;28;20056;-78
2021/06/23 07:04:33;;;;;;;6.20;4.13;;;30.30;57.00;;;;;;5104951;28;20088;-75
2021/06/23 07:06:59;;;;;;;18.30;5.13;;;30.30;57.30;;;;;;5113907;28;20481;-75
2021/06/23 07:09:25;;;;;;;12.05;4.70;;;30.30;57.30;;;;;;5112518;28;20024;-76
2021/06/23 07:11:51;;;;;;;7.45;4.57;;;30.30;57.40;;;;;;5110968;28;20035;-76
2021/06/23 07:14:20;;;;;;;12.18;4.68;;;30.40;57.60;;;;;;5109610;28;20024;-76
2021/06/23 07:16:46;;;;;;;8.80;5.20;;;30.40;57.60;;;;;;5106164;28;20047;-75
2021/06/23 07:19:13;;;;;;;9.23;4.57;;;30.30;57.70;;;;;;5107554;28;20535;-78
2021/06/23 07:21:39;;;;;;;13.85;4.82;;;30.30;57.70;;;;;;5109175;28;20020;-78
2021/06/23 07:24:05;;;;;;;10.48;4.40;;;30.30;57.60;;;;;;5108727;28;20024;-75
2021/06/23 07:26:31;;;;;;;19.67;4.50;;;30.30;57.10;;;;;;5110948;28;20020;-75
2021/06/23 07:29:01;;;;;;;15.73;4.80;;;30.40;56.70;;;;;;5109655;28;20024;-76
2021/06/23 07:31:41;;;;;;;13.43;4.45;;;30.50;56.40;;;;;;5106193;28;20036;-76
2021/06/23 07:36:38;;;;;;;20.42;5.10;;;30.70;56.30;;;;;;5093767;28;20069;-75
2021/06/23 07:39:10;;;;;;;9.50;4.40;;;30.70;56.10;;;;;;5092184;28;20027;-77
2021/06/23 07:41:39;;;;;;;7.90;4.72;;;30.70;56.20;;;;;;5093318;28;20031;-76
2021/06/23 07:44:05;;;;;;;11.73;5.00;;;30.70;56.20;;;;;;5090568;28;20038;-77
2021/06/23 07:46:42;;;;;;;7.72;4.13;;;30.70;56.10;;;;;;5093110;28;20073;-76
2021/06/23 07:49:09;;;;;;;28.70;6.13;;;30.90;56.20;;;;;;5091170;28;20035;-77
2021/06/23 08:10:53;;;;;;;9.48;4.55;;;31.60;54.40;;;;;;5067943;28;20077;-75
2021/06/23 08:13:17;;;;;;;9.98;4.35;;;31.70;54.40;;;;;;5089572;28;20514;-76
2021/06/23 08:15:48;;;;;;;8.93;4.13;;;31.80;54.20;;;;;;5092667;28;20042;-76
2021/06/23 08:18:15;;;;;;;13.90;4.88;;;31.90;54.00;;;;;;5092502;28;20024;-75
2021/06/23 08:20:41;;;;;;;11.32;4.53;;;32.00;53.90;;;;;;5092469;28;20077;-75
2021/06/23 08:23:07;;;;;;;17.83;4.72;;;32.30;53.70;;;;;;5092645;28;20541;-78
2021/06/23 08:25:34;;;;;;;12.15;5.13;;;32.50;53.50;;;;;;5092263;28;20024;-74
2021/06/23 08:28:00;;;;;;;11.98;4.40;;;32.70;53.50;;;;;;5092346;28;20081;-77
2021/06/23 08:30:26;;;;;;;12.25;4.30;;;32.80;53.50;;;;;;5092576;28;20024;-76
2021/06/23 08:32:52;;;;;;;11.75;4.97;;;32.90;53.40;;;;;;5092283;28;20034;-75
2021/06/23 08:35:17;;;;;;;13.32;4.40;;;32.90;53.10;;;;;;5092020;28;20465;-78
2021/06/23 08:37:44;;;;;;;6.47;4.65;;;33.00;53.00;;;;;;5092311;28;20024;-77
2021/06/23 08:40:13;;;;;;;9.63;4.57;;;33.10;53.20;;;;;;5092374;28;20023;-75
2021/06/23 08:42:39;;;;;;;9.82;4.70;;;33.20;53.30;;;;;;5092089;28;20077;-76
2021/06/23 08:45:07;;;;;;;9.77;5.35;;;33.30;53.70;;;;;;5089570;28;20471;-75
2021/06/23 08:47:41;;;;;;;13.80;4.90;;;33.50;53.00;;;;;;5092540;28;20052;-75
2021/06/23 08:50:09;;;;;;;8.43;4.72;;;33.60;53.10;;;;;;5089976;28;20024;-75
2021/06/23 08:52:35;;;;;;;13.73;5.07;;;33.80;52.40;;;;;;5092418;28;20032;-76
2021/06/23 08:55:02;;;;;;;6.45;3.97;;;34.10;51.90;;;;;;5091738;28;20103;-76
2021/06/23 08:57:28;;;;;;;11.27;4.63;;;34.10;51.50;;;;;;5092183;28;20032;-77
2021/06/23 08:59:54;;;;;;;7.00;4.50;;;34.20;51.40;;;;;;5092338;28;20031;-75
2021/06/23 09:02:19;;;;;;;10.40;4.47;;;34.20;51.40;;;;;;5092705;28;20028;-77
2021/06/23 09:04:59;;;;;;;13.73;4.75;;;34.30;51.10;;;;;;5095829;28;20032;-75
2021/06/23 09:07:44;;;;;;;12.10;4.88;;;34.30;50.70;;;;;;5096110;28;20118;-77
2021/06/23 09:10:33;;;;;;;17.63;4.85;;;34.30;50.50;;;;;;5093991;28;20012;-77
2021/06/23 09:13:08;;;;;;;12.23;4.50;;;34.50;50.30;;;;;;5091207;28;20105;-75
2021/06/23 09:15:51;;;;;;;20.60;4.57;;;34.70;50.20;;;;;;5096647;28;20024;-77
2021/06/23 09:18:28;;;;;;;10.63;4.53;;;35.00;49.90;;;;;;5096315;28;21010;-76
2021/06/23 09:20:58;;;;;;;9.00;4.57;;;35.20;49.70;;;;;;5094203;28;20416;-76
2021/06/23 09:23:44;;;;;;;18.45;5.50;;;35.20;49.60;;;;;;5094081;28;20371;-77
2021/06/23 09:26:37;;;;;;;8.57;4.35;;;35.30;49.40;;;;;;5095105;28;20060;-77
2021/06/23 09:29:16;;;;;;;11.32;4.45;;;35.40;49.40;;;;;;5076933;28;20116;-77
2021/06/23 09:32:01;;;;;;;10.07;4.85;;;35.40;49.40;;;;;;5083110;28;20036;-76
2021/06/23 09:34:27;;;;;;;10.60;4.70;;;35.30;49.50;;;;;;5092629;28;20085;-77
2021/06/23 09:36:53;;;;;;;12.45;4.95;;;35.30;49.60;;;;;;5096077;28;20024;-77
2021/06/23 09:39:25;;;;;;;7.82;4.88;;;35.40;49.90;;;;;;5096333;28;20461;-76
2021/06/23 09:41:51;;;;;;;11.65;4.85;;;35.50;50.00;;;;;;5095688;28;20064;-75
2021/06/23 09:44:18;;;;;;;7.22;4.15;;;35.80;49.70;;;;;;5096030;28;20036;-76
2021/06/23 09:46:46;;;;;;;12.85;4.40;;;36.20;49.30;;;;;;5096513;28;20477;-76
2021/06/23 09:49:23;;;;;;;12.00;4.43;;;36.50;48.80;;;;;;5096626;28;20161;-76
2021/06/23 09:52:12;;;;;;;11.13;4.90;;;36.70;48.60;;;;;;5096588;28;20462;-77
2021/06/23 09:54:53;;;;;;;12.48;4.60;;;36.90;48.60;;;;;;5096572;28;20038;-76
2021/06/23 09:57:19;;;;;;;12.13;4.65;;;37.00;48.20;;;;;;5096322;28;20040;-75
2021/06/23 09:59:51;;;;;;;13.93;5.05;;;37.30;48.20;;;;;;5096369;28;20051;-79
2021/06/23 10:02:27;;;;;;;12.45;5.10;;;37.60;47.70;;;;;;5096213;28;20038;-76
2021/06/23 10:04:56;;;;;;;11.68;4.53;;;38.00;47.20;;;;;;5096057;28;20024;-78
2021/06/23 10:07:44;;;;;;;20.08;4.93;;;38.30;47.00;;;;;;5096154;28;20099;-76
2021/06/23 10:10:13;;;;;;;12.55;5.68;;;38.40;46.70;;;;;;5096215;28;20032;-76
2021/06/23 10:12:39;;;;;;;17.13;5.03;;;38.50;46.80;;;;;;5096252;28;20446;-76
2021/06/23 10:15:05;;;;;;;12.90;5.10;;;38.80;46.50;;;;;;5095233;28;20028;-77
2021/06/23 10:17:32;;;;;;;13.75;4.93;;;39.20;46.00;;;;;;5092432;28;20035;-77
2021/06/23 10:20:00;;;;;;;11.23;4.90;;;39.40;45.50;;;;;;5092448;28;20024;-76
2021/06/23 10:22:27;;;;;;;18.40;4.88;;;39.40;45.10;;;;;;5095206;28;20466;-76
2021/06/23 10:24:55;;;;;;;18.40;5.63;;;39.40;45.00;;;;;;5094457;28;20470;-77
2021/06/23 10:27:21;;;;;;;12.98;4.80;;;39.60;44.80;;;;;;5094533;28;20489;-78
2021/06/23 10:29:53;;;;;;;10.15;5.15;;;39.50;44.60;;;;;;5094715;28;20520;-77
2021/06/23 10:32:19;;;;;;;11.50;4.03;;;39.30;44.60;;;;;;5092466;28;20045;-77
2021/06/23 10:34:45;;;;;;;11.52;4.78;;;39.00;45.20;;;;;;5093885;28;20107;-76
2021/06/23 10:37:11;;;;;;;13.98;5.35;;;38.70;45.50;;;;;;5095404;28;20103;-76
2021/06/23 10:39:39;;;;;;;11.02;4.78;;;38.50;45.80;;;;;;5095761;28;20024;-77
2021/06/23 10:42:07;;;;;;;12.27;5.40;;;38.40;46.10;;;;;;5094874;28;20036;-76
2021/06/23 10:44:41;;;;;;;13.75;5.43;;;38.10;46.40;;;;;;5095561;28;20389;-76
2021/06/23 10:47:08;;;;;;;12.48;5.97;;;37.80;46.90;;;;;;5095597;28;20115;-76
2021/06/23 10:49:46;;;;;;;15.43;6.85;;;37.40;47.50;;;;;;5095331;28;20466;-76
2021/06/23 10:52:20;;;;;;;18.88;6.03;;;37.10;48.10;;;;;;5095678;28;20074;-76
2021/06/23 10:55:08;;;;;;;16.38;6.72;;;36.60;48.70;;;;;;5094160;28;20485;-77
2021/06/23 10:57:44;;;;;;;29.33;6.50;;;36.30;49.60;;;;;;5094633;28;20367;-75
2021/06/23 11:00:10;;;;;;;13.77;5.72;;;36.00;50.20;;;;;;5094608;28;20492;-77
2021/06/23 11:02:40;;;;;;;12.48;5.80;;;35.60;50.50;;;;;;5095015;28;20097;-75
2021/06/23 11:05:10;;;;;;;13.70;6.07;;;35.30;51.00;;;;;;5094905;28;20032;-76
2021/06/23 11:07:55;;;;;;;17.17;6.22;;;35.10;51.60;;;;;;5095269;28;20449;-75
2021/06/23 11:10:30;;;;;;;15.52;6.05;;;34.80;51.90;;;;;;5095235;28;20028;-77
2021/06/23 11:13:00;;;;;;;14.15;5.85;;;34.80;52.50;;;;;;5094899;28;20019;-77
2021/06/23 11:15:32;;;;;;;16.48;6.72;;;34.60;52.80;;;;;;5095574;28;20028;-76
2021/06/23 11:18:16;;;;;;;17.08;6.20;;;34.60;53.20;;;;;;5095061;28;20027;-76
2021/06/23 11:20:44;;;;;;;11.82;5.93;;;34.40;53.50;;;;;;5094714;28;20074;-76
2021/06/23 11:23:47;;;;;;;13.75;6.47;;;34.20;53.70;;;;;;5092769;28;20028;-76
2021/06/23 11:26:22;;;;;;;20.80;5.13;;;34.00;54.10;;;;;;5033307;28;20487;-76
2021/06/23 11:28:54;;;;;;;12.95;5.95;;;33.90;54.40;;;;;;5034581;28;20029;-78
2021/06/23 11:31:22;;;;;;;9.23;4.68;;;33.80;54.40;;;;;;5044110;28;20029;-76
2021/06/23 11:33:48;;;;;;;10.15;5.28;;;33.60;54.40;;;;;;5054194;28;20037;-77
2021/06/23 11:36:19;;;;;;;12.48;4.85;;;33.50;54.40;;;;;;5053053;28;20091;-77
2021/06/23 11:38:46;;;;;;;10.23;5.60;;;33.40;54.40;;;;;;5054409;28;20055;-76
2021/06/23 11:41:13;;;;;;;17.05;5.28;;;33.20;54.80;;;;;;5054060;28;20095;-75
2021/06/23 11:43:39;;;;;;;14.10;5.43;;;33.10;55.20;;;;;;5054034;28;20059;-77
2021/06/23 11:46:05;;;;;;;16.88;5.75;;;32.90;55.80;;;;;;5054267;28;20061;-76
2021/06/23 11:48:31;;;;;;;16.70;6.25;;;32.70;56.40;;;;;;5053796;28;20475;-77
2021/06/23 11:50:57;;;;;;;16.52;5.50;;;32.60;57.10;;;;;;5052685;28;20072;-76
2021/06/23 11:53:23;;;;;;;14.23;5.55;;;32.40;57.60;;;;;;5053938;28;20061;-75
2021/06/23 11:55:50;;;;;;;13.55;5.32;;;32.30;58.10;;;;;;5053612;28;20031;-75
2021/06/23 11:58:17;;;;;;;16.70;5.57;;;32.10;58.40;;;;;;5053970;28;20021;-75
2021/06/23 12:00:44;;;;;;;12.60;5.43;;;32.00;58.60;;;;;;5052503;28;20056;-77
2021/06/23 12:03:15;;;;;;;21.45;5.60;;;31.80;58.80;;;;;;5036191;28;20071;-75
2021/06/23 12:05:40;;;;;;;15.88;6.22;;;31.70;59.00;;;;;;5052704;28;20029;-75
2021/06/23 12:08:06;;;;;;;16.10;5.22;;;31.60;59.20;;;;;;5053214;28;20028;-77
2021/06/23 12:10:34;;;;;;;25.15;5.68;;;31.50;59.30;;;;;;5052446;28;20107;-83
2021/06/23 12:13:01;;;;;;;16.05;5.85;;;31.40;59.40;;;;;;5054098;28;20021;-78
2021/06/23 12:15:28;;;;;;;21.90;5.50;;;31.40;59.60;;;;;;5053818;28;20035;-77
2021/06/23 12:18:03;;;;;;;23.48;6.10;;;31.30;59.60;;;;;;5053488;28;20191;-77
2021/06/23 12:20:30;;;;;;;21.92;5.75;;;31.30;59.80;;;;;;5052126;28;20020;-78
2021/06/23 12:23:01;;;;;;;11.93;5.53;;;31.30;59.90;;;;;;5053582;28;20039;-78
2021/06/23 12:25:32;;;;;;;17.00;5.80;;;31.30;60.00;;;;;;5053182;28;20143;-74
2021/06/23 12:27:59;;;;;;;23.10;5.82;;;31.30;60.20;;;;;;5040176;28;20029;-75
2021/06/23 12:30:28;;;;;;;16.73;5.57;;;31.40;60.10;;;;;;5033560;28;20083;-75
2021/06/23 12:32:58;;;;;;;21.10;5.90;;;31.40;60.10;;;;;;5033127;28;20029;-77
2021/06/23 12:35:25;;;;;;;14.43;5.45;;;31.50;60.00;;;;;;5032921;28;20460;-76
2021/06/23 12:37:51;;;;;;;16.98;5.40;;;31.50;59.90;;;;;;5040922;28;20104;-76
2021/06/23 12:40:17;;;;;;;17.90;5.57;;;31.60;59.50;;;;;;5041672;28;20059;-76
2021/06/23 12:42:43;;;;;;;17.08;5.85;;;31.70;59.30;;;;;;5053430;28;20115;-77
2021/06/23 12:45:09;;;;;;;18.40;6.07;;;31.60;58.90;;;;;;5052122;28;20171;-76
2021/06/23 12:47:35;;;;;;;17.00;5.40;;;31.70;59.00;;;;;;5053338;28;20029;-76
2021/06/23 12:50:01;;;;;;;19.92;5.55;;;31.70;58.90;;;;;;5053226;28;20029;-77
2021/06/23 12:52:27;;;;;;;20.17;5.65;;;31.70;58.90;;;;;;5053627;28;20059;-76
2021/06/23 12:54:52;;;;;;;26.67;5.93;;;31.80;58.80;;;;;;5052195;28;20482;-77
2021/06/23 12:57:18;;;;;;;15.77;5.05;;;31.90;58.70;;;;;;5053361;28;20028;-76
2021/06/23 12:59:44;;;;;;;14.98;5.07;;;31.90;58.50;;;;;;5053247;28;20032;-77
2021/06/23 13:02:10;;;;;;;16.13;5.32;;;31.90;58.40;;;;;;5053147;28;20104;-75
2021/06/23 13:04:36;;;;;;;19.58;5.55;;;32.00;58.40;;;;;;5053136;28;20040;-76
2021/06/23 13:07:01;;;;;;;20.48;5.55;;;32.00;58.20;;;;;;5051897;28;20036;-76
2021/06/23 13:09:27;;;;;;;25.00;6.00;;;32.10;58.20;;;;;;5053047;28;20033;-76
2021/06/23 13:11:53;;;;;;;19.85;5.68;;;32.10;58.00;;;;;;5052784;28;20444;-76
2021/06/23 13:14:19;;;;;;;22.88;5.75;;;32.20;58.10;;;;;;5052796;28;20029;-76
2021/06/23 13:16:45;;;;;;;22.42;5.82;;;32.20;57.90;;;;;;5052569;28;20060;-75
2021/06/23 13:19:10;;;;;;;17.48;5.57;;;32.20;57.90;;;;;;5045740;28;20032;-76